GMFU weather

Fes Sefrou Airport
Fes, Fès Province, Morocco

Public forecast

Using degrees Celsius for public forecast. Weather courtesy of forecast.io.

METAR (pilot weather report)

Closest report is Saïss Airport, 4.9 nm (9.1 km) S. Retrieved 2019/07/23 07:30 UTC (0 seconds ago):

GMFF 230730Z VRB03KT CAVOK 27/19 Q1017 NOSIG

TAF (pilot weather forecast)

Closest forecast is Saïss Airport, 4.9 nm (9.1 km) S. Retrieved 2019/07/23 06:16 UTC (48 minutes ago):

TAF GMFF 230500Z 2306/2412 25003KT 9999 SCT026 BECMG 2306/2309 6000 SCT016 BECMG 2310/2314 32011KT CAVOK TEMPO 2315/2321 30015G26KT FEW040CB